createdAt,value
2019-05-01T00:02:14.137Z,28
2019-05-01T00:05:20.374Z,28
2019-05-01T00:08:26.633Z,28
2019-05-01T00:11:32.812Z,28
2019-05-01T00:14:39.075Z,28
2019-05-01T00:17:45.183Z,28
2019-05-01T00:20:51.595Z,28
2019-05-01T00:23:57.867Z,27.9
2019-05-01T00:27:04.135Z,27.9
2019-05-01T00:30:10.257Z,28
2019-05-01T00:33:16.460Z,28
2019-05-01T00:36:22.651Z,28
2019-05-01T00:39:28.892Z,28
2019-05-01T00:42:35.030Z,28
2019-05-01T00:45:41.221Z,28
2019-05-01T00:48:47.344Z,27.9
2019-05-01T00:51:53.540Z,27.9
2019-05-01T00:54:59.705Z,27.8
2019-05-01T00:58:05.873Z,27.9
2019-05-01T01:01:11.998Z,27.8
2019-05-01T01:04:18.315Z,27.8
2019-05-01T01:07:24.440Z,27.8
2019-05-01T01:10:30.733Z,27.9
2019-05-01T01:13:37.000Z,27.9
2019-05-01T01:16:43.162Z,27.9
2019-05-01T01:19:49.292Z,27.9
2019-05-01T01:22:55.594Z,27.9
2019-05-01T01:26:01.860Z,28
2019-05-01T01:29:08.005Z,27.9
2019-05-01T01:32:14.191Z,27.8
2019-05-01T01:35:20.435Z,27.9
2019-05-01T01:38:26.623Z,27.9
2019-05-01T01:41:32.819Z,28
2019-05-01T01:44:39.162Z,28
2019-05-01T01:47:45.317Z,28
2019-05-01T01:50:51.442Z,28
2019-05-01T01:53:57.660Z,28
2019-05-01T01:57:04.018Z,28
2019-05-01T02:00:10.168Z,28
2019-05-01T02:03:16.355Z,27.9
2019-05-01T02:06:22.621Z,27.9
2019-05-01T02:09:28.886Z,28.1
2019-05-01T02:12:35.155Z,28.1
2019-05-01T02:15:41.513Z,28
2019-05-01T02:18:47.724Z,28
2019-05-01T02:21:53.952Z,28.1
2019-05-01T02:25:02.863Z,28.1
2019-05-01T02:28:09.047Z,28.1
2019-05-01T02:31:29.573Z,28.1
2019-05-01T02:34:35.815Z,28.1
2019-05-01T02:37:42.077Z,28.1
2019-05-01T02:40:48.268Z,28.1
2019-05-01T02:43:54.513Z,28.2
2019-05-01T02:47:00.677Z,28.1
2019-05-01T02:50:06.842Z,28.1
2019-05-01T02:53:13.199Z,28.1
2019-05-01T02:56:19.356Z,28.1
2019-05-01T02:59:25.530Z,28.2
2019-05-01T03:02:31.698Z,28.1
2019-05-01T03:05:37.826Z,28
2019-05-01T03:08:44.031Z,28.1
2019-05-01T03:11:50.165Z,28.1
2019-05-01T03:14:56.354Z,28.1
2019-05-01T03:18:02.619Z,28.1
2019-05-01T03:21:08.825Z,28.1
2019-05-01T03:24:15.153Z,28.1
2019-05-01T03:27:22.263Z,28.1
2019-05-01T03:30:28.529Z,28.1
2019-05-01T03:33:34.921Z,28.1
2019-05-01T03:36:41.113Z,28.1
2019-05-01T03:39:47.304Z,28.1
2019-05-01T03:42:56.290Z,28.1
2019-05-01T03:46:02.498Z,28.1
2019-05-01T03:49:08.768Z,28
2019-05-01T03:52:14.976Z,28
2019-05-01T03:55:21.220Z,28
2019-05-01T03:58:27.477Z,28.1
2019-05-01T04:01:33.842Z,27.9
2019-05-01T04:04:40.106Z,28.1
2019-05-01T04:07:46.490Z,28
2019-05-01T04:10:52.741Z,28
2019-05-01T04:13:59.002Z,27.9
2019-05-01T04:17:05.130Z,27.5
2019-05-01T04:20:11.329Z,27.1
2019-05-01T04:23:17.519Z,27.1
2019-05-01T04:26:23.760Z,26.8
2019-05-01T04:29:30.067Z,26.6
2019-05-01T04:32:53.304Z,26.5
2019-05-01T04:35:59.564Z,26.2
2019-05-01T04:39:05.783Z,26.1
2019-05-01T04:42:12.095Z,26.3
2019-05-01T04:45:18.358Z,26.4
2019-05-01T04:48:24.627Z,26.6
2019-05-01T04:51:30.795Z,26.7
2019-05-01T04:54:37.065Z,26.8
2019-05-01T04:57:43.233Z,26.9
2019-05-01T05:00:49.383Z,27
2019-05-01T05:03:55.789Z,27.1
2019-05-01T05:07:01.893Z,27
2019-05-01T05:10:08.090Z,26.8
2019-05-01T05:13:14.366Z,26.9
2019-05-01T05:16:20.488Z,27
2019-05-01T05:19:26.730Z,26.9
2019-05-01T05:22:32.942Z,27
2019-05-01T05:25:39.112Z,27
2019-05-01T05:28:45.377Z,26.8
2019-05-01T05:31:51.649Z,27.1
2019-05-01T05:34:57.917Z,27
2019-05-01T05:38:04.178Z,27.1
2019-05-01T05:41:10.301Z,27.2
2019-05-01T05:44:16.501Z,27.3
2019-05-01T09:46:37.036Z,28.2
2019-05-01T09:49:43.173Z,28
2019-05-01T09:53:00.920Z,27.7
2019-05-01T09:56:09.109Z,27.6
2019-05-01T09:59:19.741Z,27.2
2019-05-01T10:02:25.901Z,27
2019-05-01T10:05:32.156Z,26.9
2019-05-01T10:08:47.435Z,26.9
2019-05-01T10:11:53.704Z,26.6
2019-05-01T10:14:59.957Z,26.5
2019-05-01T10:18:06.249Z,26.5
2019-05-01T10:21:12.522Z,26.5
2019-05-01T10:24:18.800Z,26.3
2019-05-01T10:27:25.037Z,26.2
2019-05-01T10:30:41.021Z,26.2
2019-05-01T10:33:47.318Z,26.2
2019-05-01T10:36:55.850Z,26.1
2019-05-01T10:40:02.195Z,26
2019-05-01T10:43:08.472Z,25.9
2019-05-01T10:46:14.742Z,26
2019-05-01T10:49:23.759Z,26
2019-05-01T10:52:29.918Z,25.8
2019-05-01T10:55:36.138Z,25.8
2019-05-01T10:58:42.369Z,25.6
2019-05-01T11:01:51.233Z,25.8
2019-05-01T11:04:57.466Z,25.7
2019-05-01T11:08:03.731Z,25.7
2019-05-01T11:11:09.844Z,25.4
2019-05-01T11:14:16.050Z,25.4
2019-05-01T11:17:22.215Z,25.4
2019-05-01T11:20:28.483Z,25.4
2019-05-01T11:23:34.848Z,25.3
2019-05-01T11:26:41.125Z,25.3
2019-05-01T11:29:47.383Z,25.3
2019-05-01T11:32:53.509Z,25.2
2019-05-01T11:36:10.275Z,25.1
2019-05-01T11:39:16.402Z,25.1
2019-05-01T11:42:22.543Z,25
2019-05-01T11:45:28.669Z,25.1
2019-05-01T11:48:34.917Z,25.2
2019-05-01T11:51:41.287Z,25.2
2019-05-01T11:54:47.558Z,25.1
2019-05-01T11:57:53.931Z,25.1
2019-05-01T12:01:00.060Z,25.1
2019-05-01T12:04:06.251Z,25.1
2019-05-01T12:07:12.423Z,25.3
2019-05-01T12:10:18.694Z,25.4
2019-05-01T12:13:24.930Z,25.5
2019-05-01T12:16:31.215Z,25.6
2019-05-01T12:19:37.381Z,25.6
2019-05-01T12:22:43.551Z,25.6
2019-05-01T12:25:55.913Z,25.6
2019-05-01T12:29:02.228Z,25.6
2019-05-01T12:32:08.362Z,25.6
2019-05-01T12:35:14.567Z,25.6
2019-05-01T12:38:20.721Z,25.6
2019-05-01T12:41:26.860Z,25.6
2019-05-01T12:44:33.162Z,25.6
2019-05-01T12:47:39.414Z,25.6
2019-05-01T12:50:45.546Z,25.5
2019-05-01T12:53:51.754Z,25.5
2019-05-01T12:56:58.013Z,25.4
2019-05-01T13:00:09.706Z,25.4
2019-05-01T13:03:15.771Z,25.5
2019-05-01T13:06:22.040Z,25.3
2019-05-01T13:09:28.179Z,25.2
2019-05-01T13:12:37.036Z,25.3
2019-05-01T13:15:43.300Z,25.2
2019-05-01T13:18:52.337Z,25.3
2019-05-01T13:21:58.704Z,25.2
2019-05-01T13:25:04.869Z,25.2
2019-05-01T13:28:11.002Z,25.4
2019-05-01T13:31:17.197Z,25.2
2019-05-01T13:34:23.358Z,25.3
2019-05-01T13:37:29.519Z,25.3
2019-05-01T13:40:35.786Z,25.6
2019-05-01T13:43:41.929Z,25.4
2019-05-01T13:46:48.122Z,25.1
2019-05-01T13:49:54.388Z,25.2
2019-05-01T13:53:00.608Z,25.6
2019-05-01T13:56:06.819Z,24.9
2019-05-01T13:59:12.957Z,25.1
2019-05-01T14:02:19.249Z,25.3
2019-05-01T14:05:25.512Z,25.2
2019-05-01T14:08:31.653Z,25.3
2019-05-01T14:11:37.781Z,25.1
2019-05-01T14:14:44.010Z,25.5
2019-05-01T14:17:50.176Z,25.2
2019-05-01T14:20:56.305Z,25.4
2019-05-01T14:24:02.508Z,25.2
2019-05-01T14:27:08.775Z,25.3
2019-05-01T14:30:15.138Z,25.4
2019-05-01T14:33:21.302Z,25.3
2019-05-01T14:36:27.882Z,25.3
2019-05-01T14:39:34.038Z,25.4
2019-05-01T14:42:40.412Z,25.2
2019-05-01T14:45:46.678Z,25.3
2019-05-01T14:48:52.951Z,25.4
2019-05-01T14:51:59.078Z,25.5
2019-05-01T14:55:05.379Z,25.5
2019-05-01T14:58:11.504Z,25.6
2019-05-01T15:01:17.720Z,25.6
2019-05-01T15:04:24.081Z,25.7
2019-05-01T15:07:44.163Z,25.6
2019-05-01T15:10:50.439Z,25.6
2019-05-01T15:13:56.707Z,25.8
2019-05-01T15:17:02.882Z,25.8
2019-05-01T15:20:11.615Z,26
2019-05-01T15:23:17.856Z,26
2019-05-01T15:26:24.057Z,26.1
2019-05-01T15:29:30.400Z,26.3
2019-05-01T15:32:36.662Z,26.4
2019-05-01T15:35:42.790Z,26.5
2019-05-01T15:38:49.024Z,26.6
2019-05-01T15:41:55.261Z,26.9
2019-05-01T15:45:01.526Z,27.1
2019-05-01T15:48:07.693Z,27.2
2019-05-01T15:51:13.816Z,27.3
2019-05-01T15:54:20.029Z,27.5
2019-05-01T15:57:26.297Z,27.6
2019-05-01T16:00:32.551Z,27.8
2019-05-01T16:03:38.830Z,27.9
2019-05-01T16:06:44.965Z,27.8
2019-05-01T16:09:51.150Z,28.1
2019-05-01T16:12:57.366Z,28.1
2019-05-01T16:16:03.584Z,28.2
2019-05-01T16:19:09.950Z,28.4
2019-05-01T16:22:16.077Z,28.4
2019-05-01T16:25:22.278Z,28.5
2019-05-01T16:28:28.409Z,28.6
2019-05-01T16:31:37.391Z,28.8
2019-05-01T16:34:43.538Z,28.9
2019-05-01T16:37:49.677Z,29
2019-05-01T16:40:55.969Z,29.1
2019-05-01T16:44:02.096Z,29.1
2019-05-01T16:47:08.314Z,29.3
2019-05-01T16:50:14.573Z,29.3
2019-05-01T16:53:20.706Z,29.4
2019-05-01T16:56:26.997Z,29.5
2019-05-01T16:59:36.840Z,29.7
2019-05-01T17:02:43.022Z,29.6
2019-05-01T17:05:49.161Z,29.6
2019-05-01T17:08:55.457Z,29.6
2019-05-01T17:12:01.611Z,29.7
2019-05-01T17:15:07.780Z,29.7
2019-05-01T17:18:14.044Z,29.6
2019-05-01T17:21:20.209Z,29.6
2019-05-01T17:24:26.433Z,29.5
2019-05-01T17:27:32.743Z,29.5
2019-05-01T17:30:39.009Z,29.4
2019-05-01T17:33:45.380Z,29.3
2019-05-01T17:37:00.152Z,29.3
2019-05-01T17:40:06.419Z,29.3
2019-05-01T17:43:15.441Z,29.2
2019-05-01T17:46:21.712Z,29.2
2019-05-01T17:49:27.978Z,29.1
2019-05-01T17:52:34.257Z,29.1
2019-05-01T17:55:40.524Z,29.1
2019-05-01T17:58:46.653Z,29.1
2019-05-01T18:01:52.845Z,29
2019-05-01T18:04:59.118Z,29
2019-05-01T18:08:05.249Z,29
2019-05-01T18:11:15.790Z,29
2019-05-01T18:14:22.215Z,29
2019-05-01T18:17:28.342Z,28.9
2019-05-01T18:20:34.542Z,28.9
2019-05-01T18:23:47.477Z,28.9
2019-05-01T18:26:58.238Z,28.9
2019-05-01T18:30:04.380Z,28.9
2019-05-01T18:33:10.673Z,28.9
2019-05-01T18:36:24.516Z,28.9
2019-05-01T18:39:31.399Z,28.9
2019-05-01T18:42:37.540Z,28.9
2019-05-01T18:45:43.745Z,28.9
2019-05-01T18:48:50.107Z,28.9
2019-05-01T18:51:56.252Z,28.9
2019-05-01T18:55:02.384Z,28.9
2019-05-01T18:58:08.601Z,28.9
2019-05-01T19:01:14.743Z,29
2019-05-01T19:04:24.722Z,29
2019-05-01T19:07:30.900Z,29
2019-05-01T19:10:37.038Z,29
2019-05-01T19:13:43.186Z,29
2019-05-01T19:16:49.470Z,29
2019-05-01T19:19:55.750Z,29
2019-05-01T19:23:02.031Z,29
2019-05-01T19:26:08.287Z,29
2019-05-01T19:29:14.560Z,29.1
2019-05-01T19:32:20.834Z,29.1
2019-05-01T19:35:34.017Z,29
2019-05-01T19:38:40.510Z,29
2019-05-01T19:41:51.074Z,29.1
2019-05-01T19:45:00.228Z,29.1
2019-05-01T19:48:06.578Z,29.2
2019-05-01T19:51:12.762Z,29.2
2019-05-01T19:54:29.647Z,29.2
2019-05-01T19:57:36.144Z,29.2
2019-05-01T20:00:42.414Z,29.2
2019-05-01T20:03:48.700Z,29.2
2019-05-01T20:06:55.194Z,29.3
2019-05-01T20:10:01.422Z,29.3
2019-05-01T20:13:13.262Z,29.3
2019-05-01T20:16:19.584Z,29.3
2019-05-01T20:19:25.743Z,29.3
2019-05-01T20:22:31.858Z,29.4
2019-05-01T20:25:38.084Z,29.5
2019-05-01T20:28:44.239Z,29.5
2019-05-01T20:31:52.864Z,29.5
2019-05-01T20:35:00.054Z,29.6
2019-05-01T20:38:06.316Z,29.5
2019-05-01T20:41:18.037Z,29.6
2019-05-01T20:44:26.445Z,29.6
2019-05-01T20:47:40.231Z,29.6
2019-05-01T20:50:55.651Z,29.6
2019-05-01T20:54:01.778Z,29.6
2019-05-01T20:57:08.113Z,29.7
2019-05-01T21:00:26.037Z,29.7
2019-05-01T21:03:32.192Z,29.7
2019-05-01T21:06:43.590Z,29.7
2019-05-01T21:09:59.175Z,29.7
2019-05-01T21:13:05.325Z,29.7
2019-05-01T21:16:11.458Z,29.7
2019-05-01T21:19:17.657Z,29.7
2019-05-01T21:22:24.132Z,29.8
2019-05-01T21:25:30.285Z,29.8
2019-05-01T21:28:36.461Z,29.8
2019-05-01T21:31:44.568Z,29.8
2019-05-01T21:34:50.735Z,29.8
2019-05-01T21:37:58.691Z,29.8
2019-05-01T21:41:04.923Z,29.8
2019-05-01T21:44:12.935Z,29.9
2019-05-01T21:47:19.401Z,29.9
2019-05-01T21:50:27.295Z,29.9
2019-05-01T21:53:41.948Z,29.9
2019-05-01T21:56:52.123Z,29.9
2019-05-01T21:59:58.280Z,30
2019-05-01T22:03:04.445Z,30
2019-05-01T22:06:16.641Z,30
2019-05-01T22:09:22.918Z,30
2019-05-01T22:12:29.183Z,30
2019-05-01T22:15:35.311Z,30
2019-05-01T22:18:41.627Z,30.1
2019-05-01T22:21:47.767Z,30.1
2019-05-01T22:24:53.945Z,30.2
2019-05-01T22:28:00.213Z,30.2
2019-05-01T22:31:06.356Z,30.3
2019-05-01T22:34:12.543Z,30.4
2019-05-01T22:37:18.701Z,30.4
2019-05-01T22:40:24.973Z,30.4
2019-05-01T22:43:31.201Z,30.5
2019-05-01T22:46:40.772Z,30.5
2019-05-01T22:49:47.051Z,30.6
2019-05-01T22:52:53.319Z,30.6
2019-05-01T22:56:04.087Z,30.6
2019-05-01T22:59:10.310Z,30.7
2019-05-01T23:02:16.646Z,30.8
2019-05-01T23:05:27.744Z,30.9
2019-05-01T23:08:35.150Z,30.9
2019-05-01T23:11:41.376Z,31
2019-05-01T23:14:47.640Z,31
2019-05-01T23:17:53.802Z,31
2019-05-01T23:21:00.064Z,31
2019-05-01T23:24:06.340Z,31.1
2019-05-01T23:27:12.606Z,31.2
2019-05-01T23:30:18.780Z,31.2
2019-05-01T23:33:25.035Z,31.2
2019-05-01T23:36:34.071Z,31.3
2019-05-01T23:39:42.698Z,31.3
2019-05-01T23:42:54.303Z,31.4
2019-05-01T23:46:00.555Z,31.4
2019-05-01T23:49:06.817Z,31.4
2019-05-01T23:52:13.082Z,31.4
2019-05-01T23:55:19.229Z,31.5
2019-05-01T23:58:25.514Z,31.6
